Time;durP1;ratioP1;P1;durP2;ratioP2;P2;SDS_P1;SDS_P2;PMS_P1;PMS_P2;Temp;Humidity;BMP_temperature;BMP_pressure;BME280_temperature;BME280_humidity;BME280_pressure;Samples;Min_cycle;Max_cycle;Signal;HPM_P1;HPM_P2
2022/04/25 00:01:29;;;;;;;17.10;8.57;;;8.00;99.90;;;;;;5073216;28;20066;-80
2022/04/25 00:03:55;;;;;;;17.05;8.20;;;8.00;99.90;;;;;;5068623;28;20520;-80
2022/04/25 00:06:20;;;;;;;15.98;8.50;;;8.00;99.90;;;;;;5030671;28;20086;-80
2022/04/25 00:08:46;;;;;;;19.85;9.80;;;8.00;99.90;;;;;;5045133;28;20040;-79
2022/04/25 00:11:12;;;;;;;18.23;8.95;;;8.60;99.90;;;;;;5086452;28;20051;-80
2022/04/25 00:13:38;;;;;;;16.40;8.80;;;8.10;99.90;;;;;;5070970;28;20064;-80
2022/04/25 00:16:04;;;;;;;18.58;9.10;;;8.10;99.90;;;;;;5075381;28;20181;-79
2022/04/25 00:18:30;;;;;;;17.70;9.10;;;8.20;99.90;;;;;;5080047;28;20047;-79
2022/04/25 00:20:56;;;;;;;17.50;9.35;;;8.10;99.90;;;;;;5063241;28;20048;-79
2022/04/25 00:23:23;;;;;;;17.15;9.23;;;8.40;99.90;;;;;;5050684;28;20075;-80
2022/04/25 00:25:49;;;;;;;17.15;8.57;;;8.20;99.90;;;;;;5052012;28;20094;-80
2022/04/25 00:28:14;;;;;;;14.93;8.07;;;8.20;99.90;;;;;;5061364;28;20488;-80
2022/04/25 00:30:40;;;;;;;20.58;9.57;;;8.20;99.90;;;;;;5044281;28;20119;-80
2022/04/25 00:33:06;;;;;;;15.90;8.70;;;8.20;99.90;;;;;;5034539;28;20036;-80
2022/04/25 00:35:32;;;;;;;16.73;8.55;;;8.20;99.90;;;;;;5054290;28;20040;-79
2022/04/25 00:37:57;;;;;;;16.23;9.13;;;8.20;99.90;;;;;;5073890;28;20068;-80
2022/04/25 00:40:24;;;;;;;19.10;9.10;;;8.20;99.90;;;;;;5044950;28;20062;-79
2022/04/25 00:42:51;;;;;;;18.98;9.45;;;8.30;99.90;;;;;;5073463;28;20035;-79
2022/04/25 00:45:17;;;;;;;15.75;8.70;;;8.20;99.90;;;;;;5061798;28;20097;-80
2022/04/25 00:47:44;;;;;;;15.15;8.50;;;8.20;99.90;;;;;;5082755;28;20040;-80
2022/04/25 00:50:11;;;;;;;15.82;8.50;;;8.20;99.90;;;;;;5034951;28;20422;-80
2022/04/25 00:52:37;;;;;;;16.63;8.98;;;8.20;99.90;;;;;;5054195;28;20069;-80
2022/04/25 00:55:08;;;;;;;18.08;8.50;;;8.20;99.90;;;;;;5065310;28;20397;-80
2022/04/25 00:57:36;;;;;;;16.90;8.95;;;8.20;99.90;;;;;;5065421;28;20112;-79
2022/04/25 01:00:05;;;;;;;16.65;8.68;;;8.20;99.90;;;;;;5037595;28;20063;-79
2022/04/25 01:02:30;;;;;;;17.55;9.43;;;8.20;99.90;;;;;;5053468;28;20131;-80
2022/04/25 01:04:57;;;;;;;15.05;8.82;;;8.20;99.90;;;;;;5067043;28;20166;-80
2022/04/25 01:07:24;;;;;;;17.75;8.45;;;8.20;99.90;;;;;;5045174;28;20036;-79
2022/04/25 01:09:50;;;;;;;16.38;8.88;;;8.30;99.90;;;;;;5079657;28;20036;-79
2022/04/25 01:12:16;;;;;;;19.33;9.02;;;8.20;99.90;;;;;;5068035;28;20111;-80
2022/04/25 01:14:42;;;;;;;16.75;8.93;;;8.20;99.90;;;;;;5063521;28;20510;-80
2022/04/25 01:17:07;;;;;;;16.45;9.00;;;8.10;99.90;;;;;;5053229;28;20122;-80
2022/04/25 01:19:34;;;;;;;15.10;8.60;;;8.10;99.90;;;;;;5040934;28;20048;-79
2022/04/25 01:22:06;;;;;;;18.77;8.88;;;8.00;99.90;;;;;;5067318;28;20093;-80
2022/04/25 01:27:17;;;;;;;16.42;8.82;;;8.00;99.90;;;;;;5059325;28;20040;-80
2022/04/25 01:29:48;;;;;;;19.75;8.90;;;7.90;99.90;;;;;;5046045;28;20101;-80
2022/04/25 01:32:15;;;;;;;20.33;8.85;;;7.90;99.90;;;;;;5079291;28;20270;-80
2022/04/25 01:34:41;;;;;;;16.77;9.35;;;7.90;99.90;;;;;;5070250;28;20036;-80
2022/04/25 01:37:15;;;;;;;17.70;9.15;;;8.10;99.90;;;;;;5072709;28;20028;-80
2022/04/25 01:39:43;;;;;;;17.52;8.40;;;8.00;99.90;;;;;;5055474;28;20047;-80
2022/04/25 01:42:09;;;;;;;16.30;9.07;;;8.00;99.90;;;;;;5082130;28;20493;-80
2022/04/25 01:44:35;;;;;;;16.30;9.25;;;8.00;99.90;;;;;;5070038;28;20104;-80
2022/04/25 01:47:02;;;;;;;14.75;8.27;;;8.00;99.90;;;;;;5042571;28;20107;-79
2022/04/25 01:49:28;;;;;;;18.23;8.93;;;8.00;99.90;;;;;;5074117;28;20043;-80
2022/04/25 01:51:54;;;;;;;15.57;8.43;;;8.00;99.90;;;;;;5063056;28;20067;-79
2022/04/25 01:54:25;;;;;;;18.88;8.88;;;8.00;99.90;;;;;;5081207;28;20045;-80
2022/04/25 01:56:55;;;;;;;19.00;9.35;;;8.00;99.90;;;;;;5065119;28;20508;-79
2022/04/25 01:59:22;;;;;;;17.05;8.88;;;8.70;99.90;;;;;;5038948;28;20040;-80
2022/04/25 02:01:48;;;;;;;17.35;8.75;;;8.00;99.90;;;;;;5055534;28;20044;-80
2022/04/25 02:04:14;;;;;;;15.60;8.73;;;8.00;99.90;;;;;;5067029;28;20053;-80
2022/04/25 02:06:40;;;;;;;16.75;8.95;;;8.00;99.90;;;;;;5057420;28;20032;-79
2022/04/25 02:09:05;;;;;;;15.93;8.23;;;8.00;99.90;;;;;;5068336;28;20631;-80
2022/04/25 02:11:31;;;;;;;19.35;9.73;;;8.10;99.90;;;;;;5068216;28;20046;-80
2022/04/25 02:13:57;;;;;;;17.92;8.70;;;8.10;99.90;;;;;;5066356;28;20040;-79
2022/04/25 02:16:24;;;;;;;16.70;7.78;;;8.10;99.90;;;;;;5042352;28;20044;-80
2022/04/25 02:18:51;;;;;;;16.38;7.90;;;8.10;99.90;;;;;;5069041;28;20070;-80
2022/04/25 02:21:17;;;;;;;13.68;6.97;;;9.00;99.90;;;;;;5064571;28;20037;-80
2022/04/25 02:23:43;;;;;;;15.90;7.05;;;8.10;99.90;;;;;;5062190;28;20043;-80
2022/04/25 02:26:09;;;;;;;17.13;7.80;;;8.10;99.90;;;;;;5077338;28;20042;-80
2022/04/25 02:28:36;;;;;;;13.73;7.13;;;8.50;99.90;;;;;;5071106;28;20039;-80
2022/04/25 02:31:04;;;;;;;16.33;7.53;;;8.50;99.90;;;;;;5062556;28;20033;-79
2022/04/25 02:33:31;;;;;;;14.45;7.47;;;8.20;99.90;;;;;;5089569;28;20048;-80
2022/04/25 02:35:57;;;;;;;13.95;7.60;;;8.30;99.90;;;;;;5057962;28;20079;-80
2022/04/25 02:38:23;;;;;;;13.20;7.57;;;8.10;99.90;;;;;;5067786;28;20047;-80
2022/04/25 02:41:04;;;;;;;15.88;8.25;;;8.10;99.90;;;;;;5064321;28;20036;-80
2022/04/25 02:43:50;;;;;;;16.50;8.65;;;8.00;99.90;;;;;;5057168;28;20122;-80
2022/04/25 02:46:16;;;;;;;15.73;8.48;;;8.00;99.90;;;;;;5065200;28;20048;-80
2022/04/25 02:48:44;;;;;;;17.15;8.70;;;8.80;99.90;;;;;;5075504;28;20039;-79
2022/04/25 02:51:11;;;;;;;14.65;8.57;;;8.10;99.90;;;;;;5077806;28;20170;-79
2022/04/25 02:53:37;;;;;;;15.88;8.23;;;8.10;99.90;;;;;;5070831;28;20079;-79
2022/04/25 02:56:05;;;;;;;16.27;8.15;;;8.00;99.90;;;;;;5052760;28;20393;-80
2022/04/25 02:58:32;;;;;;;17.77;8.85;;;8.00;99.90;;;;;;5064044;28;20052;-79
2022/04/25 03:00:59;;;;;;;14.05;8.02;;;8.00;99.90;;;;;;5072872;28;20244;-80
2022/04/25 03:03:25;;;;;;;14.27;8.13;;;8.00;99.90;;;;;;5064145;28;20544;-80
2022/04/25 03:05:53;;;;;;;15.50;8.68;;;9.10;99.90;;;;;;5073032;28;20290;-79
2022/04/25 03:08:21;;;;;;;15.98;8.63;;;8.00;99.90;;;;;;5064266;28;20036;-80
2022/04/25 03:10:48;;;;;;;16.55;8.77;;;8.00;99.90;;;;;;5076903;28;20028;-80
2022/04/25 03:13:16;;;;;;;18.58;8.93;;;8.00;99.90;;;;;;5062275;28;20385;-80
2022/04/25 03:15:43;;;;;;;14.40;8.30;;;7.90;99.90;;;;;;5060757;28;20090;-79
2022/04/25 03:18:13;;;;;;;15.93;8.20;;;7.90;99.90;;;;;;5077507;28;20036;-80
2022/04/25 03:20:41;;;;;;;16.15;7.65;;;8.10;99.90;;;;;;5079264;28;20047;-79
2022/04/25 03:23:07;;;;;;;14.90;7.55;;;7.90;99.90;;;;;;5065885;28;20040;-79
2022/04/25 03:25:34;;;;;;;14.75;7.57;;;7.90;99.90;;;;;;5085494;28;20036;-79
2022/04/25 03:28:00;;;;;;;17.48;8.20;;;7.90;99.90;;;;;;5084354;28;20028;-80
2022/04/25 03:30:26;;;;;;;15.07;7.72;;;7.90;99.90;;;;;;5051309;28;20558;-79
2022/04/25 03:32:52;;;;;;;14.75;7.53;;;8.00;99.90;;;;;;5088940;28;20044;-79
2022/04/25 03:35:19;;;;;;;17.05;7.75;;;7.90;99.90;;;;;;5052874;28;20089;-80
2022/04/25 03:37:46;;;;;;;14.40;7.22;;;7.80;99.90;;;;;;5058235;28;20040;-80
2022/04/25 03:40:12;;;;;;;15.73;7.47;;;7.80;99.90;;;;;;5071066;28;20045;-79
2022/04/25 03:42:39;;;;;;;14.52;7.70;;;7.90;99.90;;;;;;5069767;28;20093;-79
2022/04/25 03:45:07;;;;;;;14.88;8.75;;;7.90;99.90;;;;;;5071751;28;20036;-79
2022/04/25 03:47:33;;;;;;;15.98;9.23;;;7.80;99.90;;;;;;5067874;28;20083;-79
2022/04/25 03:49:58;;;;;;;15.43;8.82;;;7.80;99.90;;;;;;5073901;28;20067;-80
2022/04/25 03:52:24;;;;;;;17.90;9.30;;;7.90;99.90;;;;;;5074580;28;20074;-80
2022/04/25 03:57:34;;;;;;;16.15;8.00;;;7.80;99.90;;;;;;5045371;28;20050;-80
2022/04/25 04:00:00;;;;;;;17.02;9.10;;;7.80;99.90;;;;;;5064656;28;20232;-79
2022/04/25 04:02:26;;;;;;;15.90;8.10;;;7.70;99.90;;;;;;5067815;28;20048;-79
2022/04/25 04:04:51;;;;;;;15.68;7.68;;;7.70;99.90;;;;;;5068738;28;20394;-79
2022/04/25 04:07:17;;;;;;;15.50;7.85;;;7.70;99.90;;;;;;5051761;28;20528;-79
2022/04/25 04:09:46;;;;;;;16.50;8.05;;;7.70;99.90;;;;;;5062406;28;20060;-79
2022/04/25 04:12:12;;;;;;;16.38;8.30;;;7.70;99.90;;;;;;5066911;28;20067;-80
2022/04/25 04:14:39;;;;;;;17.63;8.40;;;7.70;99.90;;;;;;5071120;28;20054;-79
2022/04/25 04:17:07;;;;;;;15.73;7.90;;;7.70;99.90;;;;;;5069000;28;20082;-80
2022/04/25 04:19:33;;;;;;;19.15;7.90;;;7.70;99.90;;;;;;5061409;28;20031;-80
2022/04/25 04:22:01;;;;;;;13.85;8.00;;;7.70;99.90;;;;;;5063530;28;20435;-80
2022/04/25 04:24:27;;;;;;;15.00;8.10;;;7.70;99.90;;;;;;5073309;28;20043;-80
2022/04/25 04:26:53;;;;;;;14.95;8.07;;;7.70;99.90;;;;;;5057469;28;20041;-79
2022/04/25 04:29:19;;;;;;;14.52;7.38;;;7.70;99.90;;;;;;5050006;28;20036;-79
2022/04/25 04:31:47;;;;;;;13.82;7.63;;;7.70;99.90;;;;;;5067702;28;20059;-79
2022/04/25 04:34:13;;;;;;;13.77;8.15;;;7.80;99.90;;;;;;5058944;28;20484;-79
2022/04/25 04:36:39;;;;;;;17.02;8.48;;;7.70;99.90;;;;;;5063802;28;20036;-80
2022/04/25 04:39:05;;;;;;;16.55;8.15;;;7.70;99.90;;;;;;5070874;28;20177;-80
2022/04/25 04:41:31;;;;;;;15.65;8.45;;;7.70;99.90;;;;;;5076556;28;20040;-79
2022/04/25 04:43:57;;;;;;;15.65;8.40;;;7.70;99.90;;;;;;5067614;28;20119;-79
2022/04/25 04:46:26;;;;;;;16.15;8.75;;;7.70;99.90;;;;;;5051038;28;20032;-79
2022/04/25 04:48:52;;;;;;;16.92;8.57;;;7.70;99.90;;;;;;5079113;28;20032;-79
2022/04/25 04:51:17;;;;;;;15.07;8.18;;;7.70;99.90;;;;;;5048917;28;20047;-79
2022/04/25 04:53:43;;;;;;;17.60;8.00;;;8.50;99.90;;;;;;5063601;28;20173;-80
2022/04/25 04:56:09;;;;;;;16.92;8.45;;;8.40;99.90;;;;;;5029558;28;20051;-80
2022/04/25 04:58:35;;;;;;;15.02;7.93;;;7.70;99.90;;;;;;5054823;28;20040;-79
2022/04/25 05:01:01;;;;;;;13.20;7.10;;;7.70;99.90;;;;;;5066752;28;20052;-80
2022/04/25 05:03:27;;;;;;;14.77;7.40;;;7.70;99.90;;;;;;5068088;28;20528;-80
2022/04/25 05:05:53;;;;;;;15.55;7.82;;;8.60;99.90;;;;;;5069381;28;20092;-80
2022/04/25 05:08:20;;;;;;;14.68;7.47;;;7.80;99.90;;;;;;5049619;28;20443;-80
2022/04/25 05:10:46;;;;;;;15.07;7.18;;;7.80;99.90;;;;;;5061911;28;20129;-80
2022/04/25 05:13:11;;;;;;;16.10;7.22;;;7.80;99.90;;;;;;5054157;28;20230;-80
2022/04/25 05:15:37;;;;;;;15.60;7.40;;;7.80;99.90;;;;;;5034704;28;20203;-80
2022/04/25 05:18:03;;;;;;;14.77;7.47;;;7.80;99.90;;;;;;5036251;28;20503;-80
2022/04/25 05:20:29;;;;;;;14.57;8.10;;;7.80;99.90;;;;;;5061651;28;20227;-80
2022/04/25 05:22:56;;;;;;;15.70;7.90;;;7.80;99.90;;;;;;5074541;28;20116;-80
2022/04/25 05:25:24;;;;;;;13.65;7.55;;;7.80;99.90;;;;;;5076244;28;20031;-80
2022/04/25 05:27:53;;;;;;;17.33;8.27;;;7.80;99.90;;;;;;5047093;28;20055;-79
2022/04/25 05:30:20;;;;;;;15.07;8.05;;;7.80;99.90;;;;;;5067532;28;20122;-79
2022/04/25 05:32:49;;;;;;;16.00;7.63;;;7.80;99.90;;;;;;5054637;28;20141;-79
2022/04/25 05:35:16;;;;;;;16.45;7.47;;;7.80;99.90;;;;;;5070422;28;20408;-80
2022/04/25 05:37:42;;;;;;;17.55;7.85;;;7.80;99.90;;;;;;5071223;28;20123;-79
2022/04/25 05:40:09;;;;;;;16.08;7.57;;;7.80;99.90;;;;;;5033332;28;20523;-79
2022/04/25 05:42:35;;;;;;;15.75;7.90;;;7.80;99.90;;;;;;5071328;28;20475;-80
2022/04/25 05:45:03;;;;;;;14.45;7.70;;;7.90;99.90;;;;;;5050719;28;20042;-80
2022/04/25 05:47:30;;;;;;;13.73;7.40;;;7.80;99.90;;;;;;5054559;28;20056;-80
2022/04/25 05:52:40;;;;;;;16.75;8.15;;;7.90;99.90;;;;;;5070415;28;20044;-81
2022/04/25 05:55:06;;;;;;;17.63;7.97;;;7.90;99.90;;;;;;5055163;28;20036;-80
2022/04/25 05:57:31;;;;;;;17.27;8.45;;;7.90;99.90;;;;;;5061510;28;20127;-80
2022/04/25 05:59:57;;;;;;;14.43;7.78;;;7.90;99.90;;;;;;5038859;28;20128;-81
2022/04/25 06:02:23;;;;;;;13.75;7.45;;;7.90;99.90;;;;;;5052825;28;20052;-81
2022/04/25 06:04:49;;;;;;;15.63;7.50;;;8.70;99.90;;;;;;5054312;28;20144;-81
2022/04/25 06:07:14;;;;;;;18.15;7.85;;;8.10;99.90;;;;;;5077682;28;20068;-81
2022/04/25 06:09:40;;;;;;;15.27;8.18;;;8.10;99.90;;;;;;5047855;28;20118;-80
2022/04/25 06:12:06;;;;;;;14.45;8.38;;;8.70;99.90;;;;;;5050651;28;20064;-80
2022/04/25 06:14:32;;;;;;;16.60;7.95;;;8.10;99.90;;;;;;5070137;28;20431;-80
2022/04/25 06:17:01;;;;;;;15.65;8.10;;;8.10;99.90;;;;;;5059934;28;20105;-80
2022/04/25 06:19:27;;;;;;;15.07;8.00;;;8.10;99.90;;;;;;5084126;28;20047;-81
2022/04/25 06:21:52;;;;;;;18.33;8.73;;;8.30;99.90;;;;;;5062851;28;20036;-81
2022/04/25 06:24:18;;;;;;;18.08;9.60;;;8.10;99.90;;;;;;5054954;28;20516;-81
2022/04/25 06:26:49;;;;;;;17.10;9.52;;;8.40;99.90;;;;;;5054237;28;20044;-81
2022/04/25 06:29:18;;;;;;;18.60;10.77;;;8.10;99.90;;;;;;5058932;28;20044;-81
2022/04/25 06:31:44;;;;;;;17.92;10.52;;;8.10;99.90;;;;;;5053261;28;20051;-81
2022/04/25 06:34:10;;;;;;;16.48;9.80;;;8.10;99.90;;;;;;5068661;28;20036;-81
2022/04/25 06:36:36;;;;;;;17.95;9.57;;;8.10;99.90;;;;;;5056686;28;20114;-81
2022/04/25 06:39:03;;;;;;;18.23;10.30;;;8.10;99.90;;;;;;5055552;28;20040;-80
2022/04/25 06:41:32;;;;;;;17.42;9.80;;;8.00;99.90;;;;;;5067168;28;20047;-80
2022/04/25 06:43:58;;;;;;;15.73;8.93;;;8.10;99.90;;;;;;5082642;28;20297;-79
2022/04/25 06:46:25;;;;;;;19.60;8.68;;;8.00;99.90;;;;;;5074235;28;20043;-79
2022/04/25 06:51:35;;;;;;;13.98;7.18;;;8.00;99.90;;;;;;5076152;28;20090;-79
2022/04/25 06:54:01;;;;;;;15.57;7.68;;;8.00;99.90;;;;;;5042886;28;20091;-79
2022/04/25 06:56:27;;;;;;;13.35;7.28;;;8.00;99.90;;;;;;5080251;28;20092;-79
2022/04/25 06:58:53;;;;;;;15.38;8.88;;;8.10;99.90;;;;;;5056585;28;20036;-79
2022/04/25 07:01:18;;;;;;;15.63;8.60;;;8.10;99.90;;;;;;5057096;28;20044;-80
2022/04/25 07:03:44;;;;;;;17.35;9.02;;;8.10;99.90;;;;;;5063631;28;20071;-80
2022/04/25 07:06:10;;;;;;;18.73;9.15;;;8.10;99.90;;;;;;5087909;28;20164;-79
2022/04/25 07:08:35;;;;;;;16.45;8.45;;;8.20;99.90;;;;;;5050979;28;20481;-79
2022/04/25 07:11:01;;;;;;;14.95;7.93;;;8.20;99.90;;;;;;5060515;28;20117;-79
2022/04/25 07:13:27;;;;;;;14.82;8.13;;;8.30;99.90;;;;;;5057017;28;20036;-79
2022/04/25 07:15:52;;;;;;;16.63;8.30;;;8.60;99.90;;;;;;5069868;28;20044;-79
2022/04/25 07:18:18;;;;;;;16.88;8.38;;;8.20;99.90;;;;;;5045707;28;20115;-79
2022/04/25 07:20:44;;;;;;;15.52;7.82;;;8.20;99.90;;;;;;5072353;28;20067;-79
2022/04/25 07:28:51;;;;;;;18.52;9.38;;;9.20;99.90;;;;;;5090061;28;20047;-79
2022/04/25 07:31:17;;;;;;;16.90;8.75;;;8.20;99.90;;;;;;5075232;28;20119;-79
2022/04/25 07:33:45;;;;;;;16.75;8.90;;;8.30;99.90;;;;;;5089937;28;20114;-80
2022/04/25 07:36:15;;;;;;;17.13;9.32;;;8.30;99.90;;;;;;5089434;28;20040;-79
2022/04/25 07:38:41;;;;;;;16.63;8.40;;;8.30;99.90;;;;;;5086547;28;20059;-80
2022/04/25 07:41:10;;;;;;;16.30;8.20;;;8.40;99.90;;;;;;5089780;28;20109;-79
2022/04/25 07:43:36;;;;;;;16.48;7.95;;;8.50;99.90;;;;;;5089752;28;20055;-80
2022/04/25 07:46:02;;;;;;;16.08;7.78;;;8.50;99.90;;;;;;5056646;28;20484;-79
2022/04/25 07:48:28;;;;;;;12.60;7.00;;;8.60;99.90;;;;;;5061227;28;20040;-79
2022/04/25 07:50:54;;;;;;;14.68;7.13;;;8.60;99.90;;;;;;5089960;28;20040;-80
2022/04/25 07:53:20;;;;;;;14.25;6.95;;;9.10;99.90;;;;;;5067346;28;20081;-80
2022/04/25 07:55:45;;;;;;;13.45;6.90;;;8.60;99.90;;;;;;5053044;28;20083;-80
2022/04/25 07:58:11;;;;;;;15.10;6.35;;;8.70;99.90;;;;;;5062746;28;20036;-80
2022/04/25 08:00:41;;;;;;;12.85;5.95;;;8.90;99.90;;;;;;5059974;28;20028;-80
2022/04/25 08:03:08;;;;;;;14.75;6.50;;;8.80;99.90;;;;;;5089292;28;20052;-80
2022/04/25 08:05:34;;;;;;;12.45;6.78;;;8.80;99.90;;;;;;5059429;28;20126;-80
2022/04/25 08:08:00;;;;;;;14.77;7.82;;;8.80;99.90;;;;;;5056009;28;20038;-80
2022/04/25 08:10:25;;;;;;;12.95;7.68;;;8.80;99.90;;;;;;5061066;28;20032;-80
2022/04/25 08:18:19;;;;;;;12.23;5.35;;;8.80;99.90;;;;;;5071045;28;20055;-80
2022/04/25 08:20:45;;;;;;;14.50;5.35;;;9.20;99.90;;;;;;5078094;28;20036;-80
2022/04/25 08:23:12;;;;;;;14.85;5.05;;;8.90;99.90;;;;;;5069102;28;20044;-80
2022/04/25 08:25:40;;;;;;;12.25;4.80;;;8.90;99.90;;;;;;5089150;28;20047;-80
2022/04/25 08:28:06;;;;;;;12.13;4.80;;;9.00;99.90;;;;;;5084075;28;20424;-80
2022/04/25 08:30:32;;;;;;;10.82;4.35;;;9.10;99.90;;;;;;5089413;28;20040;-80
2022/04/25 08:32:59;;;;;;;13.23;4.63;;;9.10;99.90;;;;;;5055049;28;20051;-80
2022/04/25 08:35:25;;;;;;;13.35;5.07;;;9.20;99.90;;;;;;5089013;28;20044;-80
2022/04/25 08:37:51;;;;;;;12.15;4.63;;;9.60;99.90;;;;;;5088620;28;20040;-80
2022/04/25 08:40:17;;;;;;;12.60;5.35;;;9.30;99.90;;;;;;5072470;28;20499;-80
2022/04/25 08:42:43;;;;;;;13.15;4.60;;;9.80;99.90;;;;;;5084650;28;20032;-80
2022/04/25 08:45:10;;;;;;;11.25;4.65;;;9.40;99.90;;;;;;5070720;28;20476;-80
2022/04/25 08:48:00;;;;;;;10.77;4.63;;;9.40;99.90;;;;;;5088617;28;20044;-80
2022/04/25 08:50:28;;;;;;;10.05;4.65;;;9.50;99.90;;;;;;5085415;28;20039;-80
2022/04/25 08:52:54;;;;;;;12.48;4.97;;;9.50;99.90;;;;;;5049376;28;20036;-80
2022/04/25 08:55:21;;;;;;;11.95;4.63;;;9.60;99.90;;;;;;5052067;28;20512;-81
2022/04/25 08:57:48;;;;;;;10.75;4.85;;;9.50;99.90;;;;;;5055015;28;20051;-80
2022/04/25 09:00:15;;;;;;;12.32;4.82;;;9.60;99.90;;;;;;5088713;28;20115;-81
2022/04/25 09:02:42;;;;;;;11.40;4.78;;;9.70;99.90;;;;;;5065477;28;20633;-81
2022/04/25 09:05:09;;;;;;;13.07;5.10;;;9.70;99.90;;;;;;5059493;28;20051;-81
2022/04/25 09:07:37;;;;;;;13.55;4.82;;;9.70;99.90;;;;;;5082225;28;20036;-80
2022/04/25 09:10:14;;;;;;;12.27;5.32;;;9.80;99.90;;;;;;5075143;28;20047;-81
2022/04/25 09:12:42;;;;;;;13.32;4.90;;;9.80;99.90;;;;;;5071614;28;20484;-80
2022/04/25 09:15:09;;;;;;;10.27;4.35;;;9.90;99.90;;;;;;5057362;28;20048;-80
2022/04/25 09:17:38;;;;;;;11.93;4.90;;;9.90;99.90;;;;;;5087872;28;20496;-81
2022/04/25 09:20:08;;;;;;;13.02;5.00;;;10.00;99.90;;;;;;5071661;28;20043;-80
2022/04/25 09:22:37;;;;;;;10.68;4.63;;;10.00;99.90;;;;;;5088321;28;20043;-78
2022/04/25 09:25:15;;;;;;;11.32;4.53;;;10.10;99.90;;;;;;5074949;28;20072;-79
2022/04/25 09:27:41;;;;;;;11.75;4.75;;;10.20;99.90;;;;;;5071617;28;20467;-79
2022/04/25 09:30:25;;;;;;;12.25;4.78;;;10.30;99.90;;;;;;5052089;28;20045;-79
2022/04/25 09:32:53;;;;;;;11.07;4.78;;;10.40;99.90;;;;;;5071089;28;20334;-79
2022/04/25 09:35:33;;;;;;;10.65;4.47;;;10.50;99.90;;;;;;5068328;28;20044;-79
2022/04/25 09:38:04;;;;;;;10.15;4.15;;;10.60;99.90;;;;;;5072352;28;20040;-79
2022/04/25 09:40:34;;;;;;;9.75;4.30;;;10.80;99.90;;;;;;5086809;28;20042;-79
2022/04/25 09:43:11;;;;;;;11.23;4.38;;;10.90;99.90;;;;;;5087553;28;20118;-79
2022/04/25 09:45:40;;;;;;;11.98;4.25;;;11.10;99.90;;;;;;5054634;28;20059;-80
2022/04/25 09:48:16;;;;;;;10.48;3.97;;;11.20;99.90;;;;;;5052412;28;20119;-80
2022/04/25 09:50:44;;;;;;;9.60;4.07;;;11.30;99.90;;;;;;5074956;28;20744;-79
2022/04/25 09:53:10;;;;;;;11.77;4.32;;;11.30;99.90;;;;;;5092093;28;20594;-79
2022/04/25 09:55:39;;;;;;;11.85;4.38;;;11.40;99.90;;;;;;5054882;28;20110;-80
2022/04/25 09:58:22;;;;;;;9.68;3.97;;;11.40;99.90;;;;;;5062500;28;20405;-79
2022/04/25 10:00:49;;;;;;;11.05;4.05;;;11.50;99.90;;;;;;5091964;28;20094;-79
2022/04/25 10:03:16;;;;;;;8.68;3.75;;;11.60;99.90;;;;;;5078208;28;20313;-79
2022/04/25 10:05:43;;;;;;;10.45;3.85;;;11.60;99.90;;;;;;5063671;28;20032;-80
2022/04/25 10:08:11;;;;;;;9.48;3.70;;;11.60;99.90;;;;;;5080022;28;20036;-80
2022/04/25 10:10:48;;;;;;;8.90;3.78;;;11.70;99.90;;;;;;5086782;28;20496;-80
2022/04/25 10:13:14;;;;;;;9.30;3.97;;;11.70;99.90;;;;;;5091603;28;20047;-79
2022/04/25 10:15:41;;;;;;;10.82;3.85;;;11.70;99.90;;;;;;5070744;28;20040;-79
2022/04/25 10:18:09;;;;;;;10.73;3.85;;;12.00;99.90;;;;;;5073749;28;20549;-79
2022/04/25 10:20:36;;;;;;;10.18;4.57;;;11.80;99.90;;;;;;5074580;28;20523;-80
2022/04/25 10:23:09;;;;;;;10.25;4.28;;;11.80;99.90;;;;;;5091237;28;20040;-79
2022/04/25 10:25:36;;;;;;;9.23;4.20;;;11.90;99.90;;;;;;5086718;28;20069;-79
2022/04/25 10:28:06;;;;;;;10.48;4.40;;;11.80;99.90;;;;;;5073880;28;20044;-79
2022/04/25 10:30:34;;;;;;;8.95;3.75;;;11.90;99.90;;;;;;5074814;28;20101;-79
2022/04/25 10:33:22;;;;;;;9.10;3.80;;;11.90;99.90;;;;;;5074257;28;20405;-79
2022/04/25 10:35:50;;;;;;;9.93;3.88;;;12.00;99.90;;;;;;5088976;28;20051;-79
2022/04/25 10:38:48;;;;;;;10.23;3.85;;;12.10;99.90;;;;;;5073547;28;20500;-79
2022/04/25 10:44:18;;;;;;;10.85;4.07;;;12.20;99.90;;;;;;5091066;28;20505;-80
2022/04/25 10:47:03;;;;;;;9.57;4.30;;;12.20;99.90;;;;;;5089528;28;20040;-79
2022/04/25 10:49:40;;;;;;;10.27;4.43;;;12.30;99.90;;;;;;5063384;28;20451;-79
2022/04/25 10:52:32;;;;;;;9.75;4.03;;;12.30;99.90;;;;;;5089936;28;20401;-79
2022/04/25 10:55:14;;;;;;;9.32;4.15;;;12.40;99.90;;;;;;5090963;28;20074;-79
2022/04/25 10:58:02;;;;;;;9.98;4.22;;;12.50;99.90;;;;;;5060568;28;20577;-79
2022/04/25 11:00:37;;;;;;;10.18;4.03;;;12.60;99.90;;;;;;5073835;28;20048;-80
2022/04/25 11:03:10;;;;;;;8.85;3.75;;;12.70;99.90;;;;;;5075011;28;20127;-80
2022/04/25 11:05:36;;;;;;;;;;;12.80;99.90;;;;;;5074248;28;20469;-80
2022/04/25 11:08:20;;;;;;;11.57;4.65;;;12.90;99.90;;;;;;5090260;28;19955;-80
2022/04/25 11:11:02;;;;;;;9.32;4.13;;;13.00;99.90;;;;;;5090170;28;20039;-80
2022/04/25 11:13:49;;;;;;;10.48;4.35;;;13.10;99.90;;;;;;5089096;28;20040;-80
2022/04/25 11:16:18;;;;;;;10.50;4.20;;;13.20;99.90;;;;;;5064237;28;20104;-80
2022/04/25 11:18:45;;;;;;;9.18;4.28;;;13.20;99.90;;;;;;5057097;28;20059;-80
2022/04/25 11:21:16;;;;;;;10.73;4.55;;;13.20;99.90;;;;;;5073567;28;20369;-79
2022/04/25 11:23:51;;;;;;;9.60;4.13;;;13.20;99.90;;;;;;5087413;28;20043;-79
2022/04/25 11:26:23;;;;;;;10.60;4.57;;;13.30;99.90;;;;;;5072597;28;20044;-80
2022/04/25 11:28:55;;;;;;;10.82;4.60;;;13.40;99.90;;;;;;5073706;28;20430;-80
2022/04/25 11:31:23;;;;;;;10.15;4.10;;;13.40;99.90;;;;;;5073779;28;20036;-80
2022/04/25 11:33:52;;;;;;;8.82;3.50;;;13.40;99.90;;;;;;5089985;28;20119;-79
2022/04/25 11:36:22;;;;;;;9.65;3.70;;;13.40;99.90;;;;;;5080088;28;20040;-81
2022/04/25 11:41:35;;;;;;;10.63;4.10;;;13.60;99.90;;;;;;5076043;28;20044;-80
2022/04/25 11:44:02;;;;;;;9.07;4.00;;;13.70;99.90;;;;;;5089863;28;20055;-80
2022/04/25 11:46:30;;;;;;;8.32;3.85;;;13.70;99.90;;;;;;5089298;28;20059;-80
2022/04/25 11:48:56;;;;;;;9.45;3.80;;;13.70;99.90;;;;;;5053284;28;20048;-80
2022/04/25 11:51:30;;;;;;;10.80;4.70;;;13.70;99.90;;;;;;5082939;28;20040;-80
2022/04/25 11:53:58;;;;;;;10.25;4.22;;;13.70;99.90;;;;;;5076914;28;20115;-80
2022/04/25 11:56:26;;;;;;;8.90;3.80;;;13.70;99.90;;;;;;5068077;28;20037;-80
2022/04/25 11:58:53;;;;;;;11.63;4.20;;;13.60;99.90;;;;;;5089500;28;20203;-80
2022/04/25 12:01:37;;;;;;;10.02;4.30;;;13.60;99.90;;;;;;5083369;28;20066;-80
2022/04/25 12:04:23;;;;;;;9.00;4.10;;;13.50;99.90;;;;;;5072276;28;20483;-80
2022/04/25 12:07:02;;;;;;;9.13;3.78;;;13.50;99.90;;;;;;5052365;28;20033;-80
2022/04/25 12:15:42;;;;;;;10.80;4.47;;;13.40;99.90;;;;;;5089836;28;20040;-81
2022/04/25 12:18:21;;;;;;;9.75;4.32;;;13.50;99.90;;;;;;5084666;28;20500;-81
2022/04/25 12:21:00;;;;;;;11.95;4.68;;;13.60;99.90;;;;;;5079355;28;20072;-81
2022/04/25 12:23:31;;;;;;;9.30;4.30;;;13.50;99.90;;;;;;5072120;28;20044;-81
2022/04/25 12:26:02;;;;;;;10.15;4.20;;;13.50;99.90;;;;;;5088444;28;20071;-80
2022/04/25 12:28:37;;;;;;;11.13;5.07;;;13.50;99.90;;;;;;5072438;28;20036;-80
2022/04/25 12:31:11;;;;;;;10.63;4.45;;;13.50;99.90;;;;;;5072327;28;20036;-81
2022/04/25 12:33:44;;;;;;;10.15;4.70;;;13.60;99.90;;;;;;5089208;28;20099;-80
2022/04/25 12:36:20;;;;;;;17.95;4.85;;;13.60;99.90;;;;;;5082671;28;20412;-81
2022/04/25 12:39:08;;;;;;;10.55;4.78;;;13.50;99.90;;;;;;5078327;28;20100;-80
2022/04/25 12:41:53;;;;;;;10.52;4.80;;;13.40;99.90;;;;;;5087599;28;20040;-80
2022/04/25 12:44:20;;;;;;;11.10;4.60;;;13.40;99.90;;;;;;5082935;28;20442;-80
2022/04/25 12:46:46;;;;;;;12.73;5.03;;;13.40;99.90;;;;;;5058423;28;20089;-80
2022/04/25 12:49:17;;;;;;;12.38;4.88;;;13.40;99.90;;;;;;5071940;28;20496;-80
2022/04/25 12:51:52;;;;;;;10.48;5.00;;;13.40;99.90;;;;;;5088824;28;20497;-80
2022/04/25 12:54:21;;;;;;;11.13;4.90;;;13.30;99.90;;;;;;5088655;28;20048;-80
2022/04/25 12:56:47;;;;;;;10.73;5.05;;;13.30;99.90;;;;;;5081557;28;20046;-80
2022/04/25 12:59:27;;;;;;;10.60;5.13;;;13.40;99.90;;;;;;5088876;28;20113;-80
2022/04/25 13:02:05;;;;;;;11.15;5.00;;;13.50;99.90;;;;;;5072090;28;20048;-81
2022/04/25 13:04:32;;;;;;;10.48;4.82;;;13.50;99.90;;;;;;5087525;28;21119;-80
2022/04/25 13:06:58;;;;;;;12.85;5.43;;;13.60;99.90;;;;;;5071748;28;20028;-80
2022/04/25 13:09:23;;;;;;;10.27;5.15;;;13.60;99.90;;;;;;5071755;28;20055;-81
2022/04/25 13:11:49;;;;;;;10.98;4.70;;;13.60;99.90;;;;;;5068610;28;20044;-81
2022/04/25 13:14:15;;;;;;;11.80;5.40;;;13.70;99.90;;;;;;5066906;28;20091;-81
2022/04/25 13:16:41;;;;;;;10.88;5.40;;;13.70;99.90;;;;;;5070838;28;20496;-81
2022/04/25 13:19:07;;;;;;;10.25;4.97;;;13.80;99.90;;;;;;5088381;28;20051;-80
2022/04/25 13:21:38;;;;;;;10.20;5.53;;;13.90;99.90;;;;;;5035613;28;20041;-81
2022/04/25 13:24:04;;;;;;;12.45;6.05;;;13.80;99.90;;;;;;5085867;28;20044;-81
2022/04/25 13:26:30;;;;;;;11.32;5.63;;;13.80;99.90;;;;;;5061938;28;20052;-81